createdAt,value
2023-02-11T00:00:19.212Z,98032.56
2023-02-11T00:01:28.633Z,98032.56
2023-02-11T00:02:32.269Z,98033.19
2023-02-11T00:03:37.808Z,98031.28
2023-02-11T00:04:40.226Z,98035.47
2023-02-11T00:05:46.273Z,98031.16
2023-02-11T00:06:48.403Z,98030.31
2023-02-11T00:07:53.248Z,98034.44
2023-02-11T00:08:57.376Z,98032.63
2023-02-11T00:10:03.036Z,98033.44
2023-02-11T00:11:05.638Z,98041.84
2023-02-11T00:12:13.062Z,98040.91
2023-02-11T00:13:15.192Z,98039.25
2023-02-11T00:14:19.897Z,98043.44
2023-02-11T00:15:22.075Z,98037.44
2023-02-11T00:16:27.034Z,98039.94
2023-02-11T00:17:29.256Z,98040.78
2023-02-11T00:18:34.241Z,98038.94
2023-02-11T00:19:37.254Z,98033.81
2023-02-11T00:20:43.125Z,98032.03
2023-02-11T00:21:45.200Z,98026.84
2023-02-11T00:22:49.853Z,98032.56
2023-02-11T00:23:52.864Z,98030.84
2023-02-11T00:24:57.820Z,98034.97
2023-02-11T00:25:59.986Z,98033.13
2023-02-11T00:27:04.724Z,98031.34
2023-02-11T00:28:10.189Z,98032.06
2023-02-11T00:29:14.909Z,98024.28
2023-02-11T00:30:17.243Z,98025.94
2023-02-11T00:31:24.556Z,98022.34
2023-02-11T00:32:26.955Z,98022.22
2023-02-11T00:33:31.698Z,98021.31
2023-02-11T00:34:34.048Z,98023.72
2023-02-11T00:35:40.094Z,98027.75
2023-02-11T00:36:42.230Z,98030.97
2023-02-11T00:37:46.978Z,98025.84
2023-02-11T00:38:50.168Z,98024.13
2023-02-11T00:39:55.368Z,98031.84
2023-02-11T00:40:57.518Z,98025.91
2023-02-11T00:42:02.220Z,98022.44
2023-02-11T00:43:04.356Z,98026.66
2023-02-11T00:44:11.661Z,98027.44
2023-02-11T00:45:14.001Z,98026.56
2023-02-11T00:46:19.549Z,98027.44
2023-02-11T00:47:21.747Z,98017.19
2023-02-11T00:48:26.572Z,98020.63
2023-02-11T00:49:28.667Z,98023.91
2023-02-11T00:50:33.420Z,98016.28
2023-02-11T00:51:35.719Z,98018.09
2023-02-11T00:52:40.608Z,98011.22
2023-02-11T00:53:43.231Z,98015.47
2023-02-11T00:54:48.373Z,98012.00
2023-02-11T00:55:51.121Z,98012.81
2023-02-11T00:56:56.175Z,98013.56
2023-02-11T00:57:59.052Z,98010.94
2023-02-11T00:59:03.824Z,98015.13
2023-02-11T01:00:10.219Z,98012.56
2023-02-11T01:01:15.854Z,98017.66
2023-02-11T01:02:18.414Z,98018.41
2023-02-11T01:03:23.190Z,98010.81
2023-02-11T01:04:25.670Z,98016.69
2023-02-11T01:05:30.569Z,98000.66
2023-02-11T01:06:32.756Z,97996.38
2023-02-11T01:07:37.648Z,97997.44
2023-02-11T01:08:40.198Z,97997.31
2023-02-11T01:09:44.905Z,97995.66
2023-02-11T01:10:54.755Z,97995.47
2023-02-11T01:11:59.592Z,97985.72
2023-02-11T01:13:02.048Z,97973.69
2023-02-11T01:14:06.924Z,97967.72
2023-02-11T01:15:15.079Z,97972.88
2023-02-11T01:16:21.119Z,97973.22
2023-02-11T01:17:23.274Z,97975.81
2023-02-11T01:18:28.910Z,97976.84
2023-02-11T01:19:30.965Z,97970.50
2023-02-11T01:20:35.965Z,97966.22
2023-02-11T01:21:38.096Z,97959.38
2023-02-11T01:22:42.831Z,97955.50
2023-02-11T01:23:45.661Z,97952.25
2023-02-11T01:24:50.541Z,97950.88
2023-02-11T01:25:53.282Z,97952.44
2023-02-11T01:26:58.459Z,97954.22
2023-02-11T01:28:00.605Z,97947.00
2023-02-11T01:29:05.400Z,97946.47
2023-02-11T01:30:13.096Z,97945.84
2023-02-11T01:31:17.935Z,97943.25
2023-02-11T01:32:20.082Z,97943.94
2023-02-11T01:33:25.398Z,97951.56
2023-02-11T01:34:27.593Z,97951.31
2023-02-11T01:35:32.346Z,97957.91
2023-02-11T01:36:34.431Z,97947.78
2023-02-11T01:37:40.092Z,97951.94
2023-02-11T01:38:42.430Z,97948.28
2023-02-11T01:39:47.137Z,97945.63
2023-02-11T01:40:50.664Z,97946.38
2023-02-11T01:41:56.029Z,97953.06
2023-02-11T01:42:58.156Z,97951.19
2023-02-11T01:44:30.822Z,97956.91
2023-02-11T01:46:16.335Z,97964.41
2023-02-11T01:47:18.615Z,97968.47
2023-02-11T01:48:28.124Z,97967.50
2023-02-11T01:49:36.621Z,97976.56
2023-02-11T01:50:40.375Z,97961.47
2023-02-11T01:51:48.764Z,97964.78
2023-02-11T01:52:50.937Z,97965.41
2023-02-11T01:54:09.493Z,97967.03
2023-02-11T01:55:29.247Z,97965.16
2023-02-11T01:56:46.805Z,97968.75
2023-02-11T01:57:56.568Z,97954.38
2023-02-11T01:59:05.301Z,97961.03
2023-02-11T02:00:15.613Z,97964.50
2023-02-11T02:01:26.082Z,97956.09
2023-02-11T02:02:40.462Z,97952.69
2023-02-11T02:03:46.252Z,97957.81
2023-02-11T02:04:56.468Z,97952.75
2023-02-11T02:06:05.941Z,97952.84
2023-02-11T02:07:14.925Z,97954.59
2023-02-11T02:08:23.206Z,97948.78
2023-02-11T02:09:31.701Z,97948.06
2023-02-11T02:10:35.800Z,97945.22
2023-02-11T02:11:41.102Z,97939.38
2023-02-11T02:12:43.349Z,97947.09
2023-02-11T02:13:49.502Z,97942.88
2023-02-11T02:14:51.756Z,97950.66
2023-02-11T02:15:58.541Z,97948.78
2023-02-11T02:17:03.338Z,97937.19
2023-02-11T02:18:24.734Z,97945.59
2023-02-11T02:19:57.176Z,97947.19
2023-02-11T02:21:40.758Z,97947.75
2023-02-11T02:23:17.317Z,97955.34
2023-02-11T02:25:01.761Z,97946.88
2023-02-11T02:26:36.530Z,97948.53
2023-02-11T02:27:54.109Z,97947.53
2023-02-11T02:29:33.462Z,97942.50
2023-02-11T02:31:12.673Z,97935.06
2023-02-11T02:32:35.629Z,97922.94
2023-02-11T02:33:48.500Z,97921.56
2023-02-11T02:34:54.111Z,97922.53
2023-02-11T02:36:10.593Z,97915.63
2023-02-11T02:37:19.973Z,97927.25
2023-02-11T02:38:31.565Z,97924.59
2023-02-11T02:39:35.582Z,97916.00
2023-02-11T02:40:46.960Z,97910.25
2023-02-11T02:41:51.416Z,97908.94
2023-02-11T02:42:56.948Z,97902.69
2023-02-11T02:43:59.378Z,97898.69
2023-02-11T02:45:06.042Z,97901.41
2023-02-11T02:46:17.598Z,97901.50
2023-02-11T02:47:22.208Z,97898.88
2023-02-11T02:48:35.972Z,97895.50
2023-02-11T02:49:41.408Z,97893.06
2023-02-11T02:50:43.839Z,97898.94
2023-02-11T02:52:11.821Z,97897.16
2023-02-11T02:53:28.125Z,97902.91
2023-02-11T02:54:48.920Z,97909.59
2023-02-11T02:56:04.222Z,97900.34
2023-02-11T02:57:22.807Z,97896.22
2023-02-11T02:58:50.378Z,97899.69
2023-02-11T03:00:07.145Z,97899.69
2023-02-11T03:01:24.581Z,97901.50
2023-02-11T03:02:32.104Z,97899.88
2023-02-11T03:03:57.366Z,97893.31
2023-02-11T03:05:07.204Z,97895.31
2023-02-11T03:06:18.706Z,97886.81
2023-02-11T03:07:25.890Z,97888.59
2023-02-11T03:08:35.564Z,97892.03
2023-02-11T03:09:42.736Z,97891.53
2023-02-11T03:10:51.484Z,97882.25
2023-02-11T03:11:54.170Z,97890.13
2023-02-11T03:13:00.180Z,97886.81
2023-02-11T03:14:04.991Z,97880.94
2023-02-11T03:15:12.023Z,97885.25
2023-02-11T03:16:17.872Z,97876.00
2023-02-11T03:17:24.369Z,97881.03
2023-02-11T03:18:29.847Z,97883.47
2023-02-11T03:19:40.756Z,97888.53
2023-02-11T03:20:45.828Z,97885.03
2023-02-11T03:21:53.736Z,97874.03
2023-02-11T03:22:59.854Z,97880.16
2023-02-11T03:24:12.114Z,97876.03
2023-02-11T03:25:15.121Z,97876.47
2023-02-11T03:26:26.489Z,97871.38
2023-02-11T03:27:36.496Z,97868.88
2023-02-11T03:28:47.677Z,97871.56
2023-02-11T03:29:57.896Z,97865.72
2023-02-11T03:31:14.172Z,97874.38
2023-02-11T03:32:24.253Z,97870.41
2023-02-11T03:33:36.603Z,97875.56
2023-02-11T03:34:47.026Z,97874.72
2023-02-11T03:35:57.832Z,97879.84
2023-02-11T03:37:05.563Z,97880.84
2023-02-11T03:38:15.548Z,97890.38
2023-02-11T03:39:25.433Z,97886.22
2023-02-11T03:40:34.951Z,97889.63
2023-02-11T03:41:40.338Z,97886.31
2023-02-11T03:42:49.327Z,97887.19
2023-02-11T03:43:55.206Z,97892.22
2023-02-11T03:45:06.565Z,97893.94
2023-02-11T03:46:10.384Z,97893.09
2023-02-11T03:47:18.860Z,97899.88
2023-02-11T03:48:25.536Z,97895.69
2023-02-11T03:49:32.176Z,97894.78
2023-02-11T03:50:42.029Z,97895.69
2023-02-11T03:51:49.896Z,97894.78
2023-02-11T03:52:53.169Z,97899.88
2023-02-11T03:54:03.596Z,97892.25
2023-02-11T03:55:09.563Z,97899.09
2023-02-11T03:56:20.146Z,97898.34
2023-02-11T03:57:22.463Z,97889.94
2023-02-11T03:58:27.672Z,97894.19
2023-02-11T03:59:30.140Z,97901.06
2023-02-11T04:00:38.047Z,97899.44
2023-02-11T04:01:40.252Z,97896.97
2023-02-11T04:02:47.053Z,97904.69
2023-02-11T04:03:49.451Z,97897.97
2023-02-11T04:04:54.282Z,97901.53
2023-02-11T04:05:59.438Z,97897.44
2023-02-11T04:07:04.564Z,97893.38
2023-02-11T04:08:06.903Z,97894.63
2023-02-11T04:09:12.065Z,97896.31
2023-02-11T04:10:14.636Z,97893.09
2023-02-11T04:11:19.633Z,97894.81
2023-02-11T04:12:22.156Z,97893.09
2023-02-11T04:13:27.441Z,97888.06
2023-02-11T04:14:29.729Z,97884.06
2023-02-11T04:15:34.914Z,97886.75
2023-02-11T04:16:39.656Z,97892.09
2023-02-11T04:17:45.000Z,97888.81
2023-02-11T04:18:47.110Z,97884.69
2023-02-11T04:19:53.364Z,97882.16
2023-02-11T04:21:00.668Z,97878.81
2023-02-11T04:22:06.363Z,97883.03
2023-02-11T04:23:08.688Z,97885.59
2023-02-11T04:24:13.690Z,97891.44
2023-02-11T04:25:17.138Z,97885.53
2023-02-11T04:26:24.450Z,97883.81
2023-02-11T04:27:28.969Z,97892.25
2023-02-11T04:28:35.214Z,97884.69
2023-02-11T04:29:39.516Z,97882.06
2023-02-11T04:30:44.459Z,97883.81
2023-02-11T04:31:46.972Z,97888.00
2023-02-11T04:32:53.782Z,97882.06
2023-02-11T04:33:58.989Z,97884.69
2023-02-11T04:35:05.600Z,97891.53
2023-02-11T04:36:11.829Z,97893.22
2023-02-11T04:37:16.892Z,97893.38
2023-02-11T04:38:19.374Z,97886.59
2023-02-11T04:39:26.040Z,97890.00
2023-02-11T04:40:31.870Z,97887.59
2023-02-11T04:41:36.666Z,97883.34
2023-02-11T04:42:39.157Z,97887.59
2023-02-11T04:43:44.068Z,97882.50
2023-02-11T04:44:48.268Z,97892.66
2023-02-11T04:45:53.944Z,97883.34
2023-02-11T04:46:56.477Z,97887.66
2023-02-11T04:48:01.313Z,97884.25
2023-02-11T04:49:03.500Z,97890.22
2023-02-11T04:50:09.678Z,97889.38
2023-02-11T04:51:15.847Z,97886.88
2023-02-11T04:52:22.104Z,97880.97
2023-02-11T04:53:24.325Z,97871.63
2023-02-11T04:54:34.091Z,97872.47
2023-02-11T04:55:36.304Z,97868.25
2023-02-11T04:56:44.671Z,97869.06
2023-02-11T04:57:46.906Z,97865.63
2023-02-11T04:58:51.730Z,97869.03
2023-02-11T04:59:54.149Z,97878.41
2023-02-11T05:01:00.676Z,97870.75
2023-02-11T05:02:04.370Z,97866.47
2023-02-11T05:03:09.248Z,97874.97
2023-02-11T05:04:11.910Z,97878.41
2023-02-11T05:05:17.214Z,97880.06
2023-02-11T05:06:22.874Z,97878.41
2023-02-11T05:07:28.033Z,97868.22
2023-02-11T05:08:30.464Z,97862.31
2023-02-11T05:09:35.754Z,97852.16
2023-02-11T05:10:38.558Z,97848.81
2023-02-11T05:11:43.815Z,97850.50
2023-02-11T05:12:48.345Z,97849.59
2023-02-11T05:13:53.301Z,97852.19
2023-02-11T05:14:55.523Z,97846.25
2023-02-11T05:16:00.750Z,97853.91
2023-02-11T05:17:03.077Z,97853.03
2023-02-11T05:18:08.328Z,97856.44
2023-02-11T05:19:10.540Z,97850.44
2023-02-11T05:20:15.449Z,97846.13
2023-02-11T05:21:19.212Z,97854.63
2023-02-11T05:22:28.633Z,97841.88
2023-02-11T05:23:30.822Z,97836.78
2023-02-11T05:24:36.398Z,97836.78
2023-02-11T05:25:38.970Z,97841.88
2023-02-11T05:26:44.109Z,97840.13
2023-02-11T05:27:46.352Z,97835.94
2023-02-11T05:28:51.179Z,97829.16
2023-02-11T05:29:53.323Z,97829.97
2023-02-11T05:30:58.915Z,97837.59
2023-02-11T05:32:01.144Z,97838.47
2023-02-11T05:33:06.240Z,97838.47
2023-02-11T05:34:08.363Z,97835.03
2023-02-11T05:35:13.399Z,97839.25
2023-02-11T05:36:17.203Z,97842.59
2023-02-11T05:37:22.122Z,97843.66
2023-02-11T05:38:27.416Z,97844.50
2023-02-11T05:39:32.335Z,97833.47
2023-02-11T05:40:36.640Z,97840.28
2023-02-11T05:41:41.480Z,97839.34
2023-02-11T05:42:43.700Z,97840.25
2023-02-11T05:43:51.228Z,97836.81
2023-02-11T05:44:53.436Z,97841.09
2023-02-11T05:45:58.241Z,97838.50
2023-02-11T05:47:02.358Z,97841.03
2023-02-11T05:48:10.387Z,97836.88
2023-02-11T05:49:15.028Z,97847.13
2023-02-11T05:51:54.505Z,97844.72
2023-02-11T05:53:03.378Z,97838.84
2023-02-11T05:54:17.934Z,97837.16
2023-02-11T05:55:24.909Z,97837.16
2023-02-11T05:56:35.313Z,97821.03
2023-02-11T05:57:38.355Z,97822.75
2023-02-11T05:59:00.532Z,97817.78
2023-02-11T06:00:13.314Z,97822.94
2023-02-11T06:01:18.125Z,97827.25
2023-02-11T06:02:20.210Z,97836.63
2023-02-11T06:03:25.457Z,97838.41
2023-02-11T06:04:28.114Z,97831.63
2023-02-11T06:05:33.192Z,97837.63
2023-02-11T06:06:35.531Z,97830.00
2023-02-11T06:07:40.595Z,97830.97
2023-02-11T06:08:44.499Z,97830.97
2023-02-11T06:09:52.615Z,97835.19
2023-02-11T06:10:54.768Z,97826.69
2023-02-11T06:11:59.627Z,97820.72
2023-02-11T06:13:04.877Z,97819.09
2023-02-11T06:14:07.318Z,97820.78
2023-02-11T06:16:42.263Z,97831.94
2023-02-11T06:17:59.785Z,97833.63
2023-02-11T06:19:04.708Z,97839.59
2023-02-11T06:20:11.124Z,97839.66
2023-02-11T06:21:16.385Z,97841.28
2023-02-11T06:22:21.544Z,97848.00
2023-02-11T06:23:23.930Z,97842.19
2023-02-11T06:24:51.369Z,97838.88
2023-02-11T06:26:19.879Z,97839.78
2023-02-11T06:27:28.502Z,97846.03
2023-02-11T06:28:41.952Z,97845.91
2023-02-11T06:29:46.637Z,97847.09
2023-02-11T06:30:53.495Z,97837.88
2023-02-11T06:31:56.361Z,97841.19
2023-02-11T06:33:01.967Z,97839.38
2023-02-11T06:34:06.379Z,97839.50
2023-02-11T06:35:12.426Z,97837.75
2023-02-11T06:36:16.693Z,97846.16
2023-02-11T06:37:23.379Z,97848.78
2023-02-11T06:38:25.616Z,97852.16
2023-02-11T06:39:30.385Z,97843.75
2023-02-11T06:40:32.710Z,97851.31
2023-02-11T06:41:40.625Z,97851.38
2023-02-11T06:42:45.216Z,97851.38
2023-02-11T06:43:50.751Z,97840.41
2023-02-11T06:44:55.034Z,97843.75
2023-02-11T06:45:59.819Z,97839.59
2023-02-11T06:47:02.268Z,97831.84
2023-02-11T06:48:08.429Z,97838.59
2023-02-11T06:49:13.657Z,97830.94
2023-02-11T06:50:16.074Z,97837.66
2023-02-11T06:51:21.694Z,97839.38
2023-02-11T06:52:23.943Z,97846.16
2023-02-11T06:53:32.212Z,97841.06
2023-02-11T06:54:34.553Z,97847.03
2023-02-11T06:55:40.385Z,97864.06
2023-02-11T06:56:46.956Z,97858.19
2023-02-11T06:57:52.386Z,97858.22
2023-02-11T06:58:55.828Z,97855.75
2023-02-11T07:00:00.830Z,97847.31
2023-02-11T07:01:07.168Z,97854.91
2023-02-11T07:02:14.882Z,97856.59
2023-02-11T07:03:17.173Z,97854.94
2023-02-11T07:04:23.778Z,97844.72
2023-02-11T07:05:26.017Z,97847.25
2023-02-11T07:06:31.280Z,97857.50
2023-02-11T07:07:34.513Z,97856.78
2023-02-11T07:08:44.407Z,97862.13
2023-02-11T07:09:49.906Z,97856.13
2023-02-11T07:10:52.190Z,97852.72
2023-02-11T07:11:59.849Z,97853.63
2023-02-11T07:13:04.419Z,97842.75
2023-02-11T07:14:11.376Z,97844.34
2023-02-11T07:15:13.477Z,97843.50
2023-02-11T07:16:20.709Z,97844.28
2023-02-11T07:17:23.171Z,97839.13
2023-02-11T07:18:27.998Z,97839.91
2023-02-11T07:19:30.124Z,97835.63
2023-02-11T07:20:34.937Z,97832.16
2023-02-11T07:21:37.032Z,97826.16
2023-02-11T07:22:46.894Z,97828.75
2023-02-11T07:23:52.302Z,97827.84
2023-02-11T07:24:57.238Z,97826.94
2023-02-11T07:25:59.394Z,97829.56
2023-02-11T07:27:06.883Z,97825.25
2023-02-11T07:28:09.023Z,97822.75
2023-02-11T07:29:13.957Z,97825.31
2023-02-11T07:30:16.164Z,97830.47
2023-02-11T07:31:25.548Z,97823.66
2023-02-11T07:32:27.778Z,97822.00
2023-02-11T07:33:32.558Z,97829.59
2023-02-11T07:34:35.036Z,97836.41
2023-02-11T07:35:42.359Z,97828.81
2023-02-11T07:36:45.301Z,97831.38
2023-02-11T07:37:50.141Z,97839.97
2023-02-11T07:38:52.477Z,97834.09
2023-02-11T07:39:57.342Z,97845.19
2023-02-11T07:41:00.861Z,97843.63
2023-02-11T07:42:09.548Z,97847.22
2023-02-11T07:43:12.215Z,97850.06
2023-02-11T07:44:27.550Z,97845.94
2023-02-11T07:45:36.862Z,97842.81
2023-02-11T07:46:43.238Z,97836.00
2023-02-11T07:47:48.497Z,97831.97
2023-02-11T07:48:51.060Z,97831.22
2023-02-11T07:49:56.834Z,97830.38
2023-02-11T07:51:06.248Z,97832.97
2023-02-11T07:52:10.966Z,97840.84
2023-02-11T07:53:13.070Z,97834.03
2023-02-11T07:54:19.065Z,97834.88
2023-02-11T07:55:21.163Z,97838.22
2023-02-11T07:56:26.649Z,97837.22
2023-02-11T07:57:34.309Z,97837.44
2023-02-11T07:58:39.416Z,97833.94
2023-02-11T08:00:02.144Z,97843.13
2023-02-11T08:01:05.764Z,97828.41
2023-02-11T08:02:12.217Z,97842.88
2023-02-11T08:03:14.449Z,97851.31
2023-02-11T08:04:25.216Z,97848.75
2023-02-11T08:05:29.160Z,97841.16
2023-02-11T08:06:37.728Z,97845.34
2023-02-11T08:07:42.772Z,97844.50
2023-02-11T08:08:45.265Z,97846.19
2023-02-11T08:09:50.652Z,97850.47
2023-02-11T08:10:53.090Z,97847.16
2023-02-11T08:11:57.945Z,97854.75
2023-02-11T08:13:02.748Z,97855.66
2023-02-11T08:14:07.607Z,97848.03
2023-02-11T08:15:12.690Z,97846.47
2023-02-11T08:16:19.300Z,97840.56
2023-02-11T08:17:24.310Z,97835.59
2023-02-11T08:18:26.460Z,97840.03
2023-02-11T08:19:33.496Z,97841.63
2023-02-11T08:20:40.196Z,97845.97
2023-02-11T08:21:45.481Z,97844.13
2023-02-11T08:22:49.068Z,97838.13
2023-02-11T08:23:54.614Z,97840.97
2023-02-11T08:24:58.689Z,97852.03
2023-02-11T08:26:05.372Z,97845.28
2023-02-11T08:27:12.708Z,97846.97
2023-02-11T08:28:18.179Z,97851.13
2023-02-11T08:29:23.121Z,97851.28
2023-02-11T08:30:29.486Z,97847.84
2023-02-11T08:31:37.271Z,97845.22
2023-02-11T08:32:48.396Z,97846.81
2023-02-11T08:33:58.281Z,97857.22
2023-02-11T08:35:14.733Z,97855.69
2023-02-11T08:37:47.232Z,97854.13
2023-02-11T08:38:49.522Z,97859.28
2023-02-11T08:39:54.439Z,97856.00
2023-02-11T08:40:56.700Z,97860.44
2023-02-11T08:42:01.513Z,97855.72
2023-02-11T08:43:05.219Z,97845.75
2023-02-11T08:44:14.720Z,97853.59
2023-02-11T08:45:20.019Z,97849.38
2023-02-11T08:46:22.309Z,97844.22
2023-02-11T08:47:27.391Z,97841.81
2023-02-11T08:48:34.538Z,97847.78
2023-02-11T08:49:41.631Z,97834.44
2023-02-11T08:50:43.885Z,97829.38
2023-02-11T08:51:49.652Z,97829.44
2023-02-11T08:52:54.442Z,97823.91
2023-02-11T08:53:57.050Z,97807.91
2023-02-11T08:55:01.838Z,97814.78
2023-02-11T08:56:04.266Z,97811.38
2023-02-11T08:57:10.144Z,97809.81
2023-02-11T08:58:12.336Z,97804.44
2023-02-11T08:59:19.996Z,97812.81
2023-02-11T09:00:23.036Z,97816.31
2023-02-11T09:01:29.355Z,97822.09
2023-02-11T09:02:34.159Z,97822.94
2023-02-11T09:03:36.397Z,97821.38
2023-02-11T09:04:41.202Z,97820.56
2023-02-11T09:05:44.079Z,97821.97
2023-02-11T09:06:49.404Z,97827.03
2023-02-11T09:07:54.486Z,97834.69
2023-02-11T09:09:00.925Z,97828.13
2023-02-11T09:10:06.643Z,97818.59
2023-02-11T09:11:10.037Z,97821.22
2023-02-11T09:12:15.088Z,97816.28
2023-02-11T09:13:17.409Z,97818.66
2023-02-11T09:14:26.101Z,97821.06
2023-02-11T09:15:30.886Z,97824.31
2023-02-11T09:16:35.239Z,97830.25
2023-02-11T09:17:40.273Z,97825.97
2023-02-11T09:18:42.356Z,97822.53
2023-02-11T09:19:47.090Z,97814.91
2023-02-11T09:20:52.488Z,97814.97
2023-02-11T09:21:57.392Z,97811.34
2023-02-11T09:22:59.606Z,97813.84
2023-02-11T09:24:04.593Z,97809.44
2023-02-11T09:25:08.616Z,97798.19
2023-02-11T09:26:17.896Z,97795.69
2023-02-11T09:27:23.060Z,97801.16
2023-02-11T09:28:25.649Z,97801.13
2023-02-11T09:29:33.321Z,97798.66
2023-02-11T09:30:37.239Z,97790.56
2023-02-11T09:31:42.586Z,97790.81
2023-02-11T09:32:44.885Z,97785.91
2023-02-11T09:33:51.697Z,97789.47
2023-02-11T09:34:54.051Z,97799.81
2023-02-11T09:35:58.772Z,97790.78
2023-02-11T09:37:03.451Z,97793.53
2023-02-11T09:38:05.714Z,97788.44
2023-02-11T09:39:12.949Z,97781.59
2023-02-11T09:40:18.353Z,97780.72
2023-02-11T09:41:52.599Z,97779.84
2023-02-11T09:43:06.038Z,97774.16
2023-02-11T09:44:17.720Z,97776.78
2023-02-11T09:45:28.304Z,97775.25
2023-02-11T09:46:33.163Z,97779.81
2023-02-11T09:47:46.372Z,97784.53
2023-02-11T09:48:52.269Z,97785.81
2023-02-11T09:50:02.372Z,97797.22
2023-02-11T09:51:08.051Z,97790.59
2023-02-11T09:52:20.673Z,97790.19
2023-02-11T09:53:27.958Z,97796.53
2023-02-11T09:54:34.457Z,97790.44
2023-02-11T09:55:43.301Z,97802.47
2023-02-11T09:56:45.546Z,97800.25
2023-02-11T09:57:50.583Z,97796.31
2023-02-11T09:58:52.656Z,97803.31
2023-02-11T09:59:58.430Z,97800.72
2023-02-11T10:01:22.051Z,97819.28
2023-02-11T10:02:29.842Z,97809.25
2023-02-11T10:03:58.197Z,97803.19
2023-02-11T10:05:23.701Z,97797.81
2023-02-11T10:06:44.571Z,97786.91
2023-02-11T10:07:54.565Z,97788.84
2023-02-11T10:09:12.483Z,97792.13
2023-02-11T10:10:24.727Z,97790.09
2023-02-11T10:11:38.545Z,97795.03
2023-02-11T10:13:06.593Z,97801.31
2023-02-11T10:14:26.643Z,97791.38
2023-02-11T10:15:40.552Z,97786.81
2023-02-11T10:17:00.818Z,97785.00
2023-02-11T10:18:19.999Z,97788.69
2023-02-11T10:19:39.979Z,97787.81
2023-02-11T10:20:59.816Z,97799.91
2023-02-11T10:22:38.332Z,97806.03
2023-02-11T10:23:47.063Z,97805.34
2023-02-11T10:24:58.564Z,97802.66
2023-02-11T10:26:03.634Z,97793.66
2023-02-11T10:27:19.309Z,97805.16
2023-02-11T10:28:25.089Z,97799.00
2023-02-11T10:29:39.520Z,97807.53
2023-02-11T10:30:49.640Z,97800.88
2023-02-11T10:31:57.259Z,97806.25
2023-02-11T10:33:07.258Z,97807.97
2023-02-11T10:34:14.316Z,97806.16
2023-02-11T10:35:25.140Z,97802.38
2023-02-11T10:36:30.510Z,97788.88
2023-02-11T10:37:35.234Z,97790.72
2023-02-11T10:38:40.076Z,97797.16
2023-02-11T10:39:42.574Z,97799.66
2023-02-11T10:40:47.564Z,97808.78
2023-02-11T10:41:54.781Z,97792.28
2023-02-11T10:43:11.196Z,97812.13
2023-02-11T10:44:27.221Z,97796.50
2023-02-11T10:45:45.328Z,97788.66
2023-02-11T10:46:47.720Z,97800.41
2023-02-11T10:48:00.551Z,97784.94
2023-02-11T10:49:03.602Z,97780.09
2023-02-11T10:50:26.023Z,97770.69
2023-02-11T10:51:33.745Z,97780.00
2023-02-11T10:52:38.430Z,97777.06
2023-02-11T10:53:40.494Z,97775.00
2023-02-11T10:54:45.314Z,97766.59
2023-02-11T10:55:55.756Z,97768.75
2023-02-11T10:57:00.566Z,97765.97
2023-02-11T10:58:06.134Z,97764.28
2023-02-11T10:59:21.507Z,97769.00
2023-02-11T11:00:36.979Z,97766.16
2023-02-11T11:01:44.785Z,97767.84
2023-02-11T11:03:00.000Z,97780.59
2023-02-11T11:04:02.310Z,97763.91
2023-02-11T11:05:17.966Z,97763.41
2023-02-11T11:06:33.703Z,97765.00
2023-02-11T11:07:37.267Z,97767.06
2023-02-11T11:08:45.419Z,97764.22
2023-02-11T11:09:51.626Z,97764.75
2023-02-11T11:11:07.415Z,97762.22
2023-02-11T11:12:28.198Z,97749.75
2023-02-11T11:13:35.645Z,97741.53
2023-02-11T11:14:37.758Z,97737.47
2023-02-11T11:15:42.566Z,97743.88
2023-02-11T11:16:55.707Z,97746.28
2023-02-11T11:18:23.070Z,97734.47
2023-02-11T11:19:26.270Z,97746.66
2023-02-11T11:20:35.637Z,97747.91
2023-02-11T11:21:45.155Z,97738.13
2023-02-11T11:22:49.278Z,97747.31
2023-02-11T11:23:58.105Z,97749.25
2023-02-11T11:25:01.733Z,97728.66
2023-02-11T11:26:09.808Z,97739.47
2023-02-11T11:27:22.357Z,97742.19
2023-02-11T11:28:31.051Z,97747.75
2023-02-11T11:29:39.384Z,97757.06
2023-02-11T11:30:43.450Z,97751.38
2023-02-11T11:32:00.012Z,97749.31
2023-02-11T11:33:02.681Z,97742.69
2023-02-11T11:34:24.990Z,97737.19
2023-02-11T11:35:30.257Z,97732.06
2023-02-11T11:36:40.247Z,97736.31
2023-02-11T11:37:42.662Z,97733.72
2023-02-11T11:38:51.812Z,97739.50
2023-02-11T11:39:59.027Z,97737.88
2023-02-11T11:41:21.091Z,97745.50
2023-02-11T11:42:30.975Z,97744.25
2023-02-11T11:43:33.226Z,97740.91
2023-02-11T11:44:40.111Z,97748.19
2023-02-11T11:45:54.862Z,97734.75
2023-02-11T11:47:26.828Z,97728.38
2023-02-11T11:48:37.326Z,97744.44
2023-02-11T11:49:50.889Z,97725.06
2023-02-11T11:50:58.993Z,97735.34
2023-02-11T11:52:19.096Z,97743.09
2023-02-11T11:53:30.150Z,97735.06
2023-02-11T11:54:37.179Z,97755.19
2023-02-11T11:55:46.738Z,97741.38
2023-02-11T11:56:59.413Z,97748.81
2023-02-11T11:58:01.507Z,97733.97
2023-02-11T11:59:15.056Z,97737.56
2023-02-11T12:00:22.809Z,97734.19
2023-02-11T12:01:36.677Z,97730.31
2023-02-11T12:03:03.315Z,97729.91
2023-02-11T12:04:27.012Z,97732.19
2023-02-11T12:05:42.030Z,97735.38
2023-02-11T12:07:03.161Z,97741.38
2023-02-11T12:08:19.842Z,97740.59
2023-02-11T12:09:31.157Z,97750.25
2023-02-11T12:10:53.402Z,97754.19
2023-02-11T12:12:13.308Z,97747.16
2023-02-11T12:13:30.955Z,97754.06
2023-02-11T12:14:45.215Z,97754.22
2023-02-11T12:16:04.081Z,97759.00
2023-02-11T12:17:17.685Z,97757.88
2023-02-11T12:18:49.787Z,97768.13
2023-02-11T12:20:19.797Z,97769.47
2023-02-11T12:21:33.570Z,97764.78
2023-02-11T12:22:47.322Z,97765.47
2023-02-11T12:24:06.689Z,97765.41
2023-02-11T12:25:24.182Z,97770.81
2023-02-11T12:26:35.796Z,97774.84
2023-02-11T12:27:42.863Z,97775.81
2023-02-11T12:28:59.005Z,97774.56
2023-02-11T12:30:12.696Z,97777.22
2023-02-11T12:31:26.811Z,97771.63
2023-02-11T12:32:37.691Z,97774.25
2023-02-11T12:33:57.973Z,97783.84
2023-02-11T12:35:28.261Z,97784.09
2023-02-11T12:36:48.752Z,97776.66
2023-02-11T12:38:15.840Z,97768.34
2023-02-11T12:39:34.512Z,97764.06
2023-02-11T12:40:47.794Z,97767.72
2023-02-11T12:42:42.587Z,97759.00
2023-02-11T12:43:48.326Z,97763.22
2023-02-11T12:45:05.039Z,97750.25
2023-02-11T12:46:33.552Z,97755.88
2023-02-11T12:47:45.899Z,97750.53
2023-02-11T12:49:21.949Z,97751.75
2023-02-11T12:50:37.961Z,97746.94
2023-02-11T12:52:04.565Z,97750.84
2023-02-11T12:53:24.474Z,97753.94
2023-02-11T12:54:33.444Z,97759.38
2023-02-11T12:55:40.394Z,97755.31
2023-02-11T12:56:51.566Z,97750.81
2023-02-11T12:57:59.494Z,97755.03
2023-02-11T12:59:08.402Z,97751.91
2023-02-11T13:00:20.466Z,97749.75
2023-02-11T13:01:26.551Z,97744.16
2023-02-11T13:02:39.380Z,97741.66
2023-02-11T13:03:48.660Z,97744.53
2023-02-11T13:04:54.097Z,97744.75
2023-02-11T13:06:03.084Z,97749.25
2023-02-11T13:07:17.537Z,97744.88
2023-02-11T13:08:28.606Z,97742.44
2023-02-11T13:09:37.119Z,97752.44
2023-02-11T13:10:46.067Z,97750.88
2023-02-11T13:11:54.759Z,97745.13
2023-02-11T13:13:14.364Z,97740.28
2023-02-11T13:14:25.124Z,97738.09
2023-02-11T13:15:27.809Z,97736.94
2023-02-11T13:16:39.526Z,97741.22
2023-02-11T13:17:50.307Z,97747.81
2023-02-11T13:19:03.971Z,97735.38
2023-02-11T13:20:16.929Z,97734.84
2023-02-11T13:21:53.015Z,97730.44
2023-02-11T13:23:04.400Z,97734.91
2023-02-11T13:24:19.716Z,97731.66
2023-02-11T13:25:31.072Z,97738.38